createdAt,value
2018-03-31T00:01:36.274Z,99383.11
2018-03-31T00:06:29.116Z,99380.44
2018-03-31T00:11:22.251Z,99379.83
2018-03-31T00:16:15.324Z,99387.22
2018-03-31T00:21:08.169Z,99393.41
2018-03-31T00:26:01.309Z,99384.25
2018-03-31T00:30:54.906Z,99384.06
2018-03-31T00:35:48.837Z,99375.59
2018-03-31T00:40:41.711Z,99367.31
2018-03-31T00:45:34.516Z,99365.61
2018-03-31T00:50:28.108Z,99366.77
2018-03-31T00:55:21.698Z,99363.22
2018-03-31T01:00:15.298Z,99365.95
2018-03-31T01:05:08.117Z,99371.27
2018-03-31T01:10:00.972Z,99379.50
2018-03-31T01:14:53.824Z,99380.06
2018-03-31T01:19:46.650Z,99376.87
2018-03-31T01:24:40.334Z,99379.20
2018-03-31T01:29:33.929Z,99380.25
2018-03-31T01:34:26.762Z,99380.92
2018-03-31T01:39:19.584Z,99392.83
2018-03-31T01:44:12.396Z,99385.95
2018-03-31T01:49:05.227Z,99379.16
2018-03-31T01:53:58.055Z,99381.95
2018-03-31T01:58:52.077Z,99376.41
2018-03-31T02:03:44.892Z,99380.05
2018-03-31T02:08:37.722Z,99377.63
2018-03-31T02:13:30.546Z,99382.14
2018-03-31T02:18:24.163Z,99375.70
2018-03-31T02:23:16.998Z,99384.58
2018-03-31T02:28:10.604Z,99385.88
2018-03-31T02:33:03.421Z,99379.80
2018-03-31T02:37:56.294Z,99385.44
2018-03-31T02:42:49.131Z,99380.63
2018-03-31T02:47:42.137Z,99385.69
2018-03-31T02:52:34.956Z,99392.11
2018-03-31T02:57:27.559Z,99393.69
2018-03-31T03:02:20.405Z,99395.62
2018-03-31T03:07:13.243Z,99396.31
2018-03-31T03:12:06.074Z,99401.63
2018-03-31T03:16:59.664Z,99406.46
2018-03-31T03:21:53.247Z,99401.53
2018-03-31T03:26:46.860Z,99396.77
2018-03-31T03:31:39.698Z,99404.81
2018-03-31T03:36:33.310Z,99412.84
2018-03-31T03:41:26.138Z,99410.14
2018-03-31T03:46:19.743Z,99421.77
2018-03-31T03:51:12.570Z,99432.68
2018-03-31T03:56:05.446Z,99427.16
2018-03-31T04:00:58.287Z,99430.91
2018-03-31T04:05:51.129Z,99429.46
2018-03-31T04:10:43.969Z,99421.66
2018-03-31T04:15:37.393Z,99429.51
2018-03-31T04:20:30.239Z,99422.41
2018-03-31T04:25:23.218Z,99420.50
2018-03-31T04:30:16.061Z,99425.08
2018-03-31T04:35:08.897Z,99424.76
2018-03-31T04:40:01.740Z,99424.13
2018-03-31T04:44:54.758Z,99417.38
2018-03-31T04:49:48.370Z,99419.08
2018-03-31T04:54:41.231Z,99412.22
2018-03-31T04:59:34.122Z,99427.53
2018-03-31T05:04:26.738Z,99431.54
2018-03-31T05:09:20.357Z,99428.33
2018-03-31T05:14:12.954Z,99426.54
2018-03-31T05:19:06.469Z,99425.44
2018-03-31T05:23:59.317Z,99433.84
2018-03-31T05:28:52.707Z,99428.79
2018-03-31T05:33:46.314Z,99430.56
2018-03-31T05:38:39.162Z,99424.39
2018-03-31T05:43:32.766Z,99423.56
2018-03-31T05:48:25.600Z,99432.59
2018-03-31T05:53:19.207Z,99444.86
2018-03-31T05:58:12.039Z,99446.49
2018-03-31T06:03:04.879Z,99441.45
2018-03-31T06:07:57.728Z,99436.69
2018-03-31T06:12:50.570Z,99436.16
2018-03-31T06:17:43.404Z,99439.91
2018-03-31T06:22:36.229Z,99437.20
2018-03-31T06:27:29.091Z,99446.58
2018-03-31T06:32:21.684Z,99453.23
2018-03-31T06:37:14.542Z,99461.13
2018-03-31T06:42:07.392Z,99456.40
2018-03-31T06:47:00.246Z,99454.09
2018-03-31T06:51:53.874Z,99463.69
2018-03-31T06:56:46.498Z,99468.69
2018-03-31T07:01:39.373Z,99465.69
2018-03-31T07:06:32.224Z,99468.61
2018-03-31T07:11:26.757Z,99470.52
2018-03-31T07:16:19.720Z,99472.31
2018-03-31T07:21:12.652Z,99472.59
2018-03-31T07:26:05.517Z,99472.69
2018-03-31T07:30:59.135Z,99476.09
2018-03-31T07:35:51.996Z,99468.80
2018-03-31T07:40:45.057Z,99478.34
2018-03-31T07:45:38.033Z,99475.87
2018-03-31T07:50:31.114Z,99482.80
2018-03-31T07:55:24.093Z,99481.77
2018-03-31T08:00:17.369Z,99480.91
2018-03-31T08:05:10.204Z,99477.79
2018-03-31T08:10:03.095Z,99474.61
2018-03-31T08:14:55.926Z,99472.33
2018-03-31T08:19:49.566Z,99470.15
2018-03-31T08:24:42.601Z,99464.59
2018-03-31T08:29:35.465Z,99467.07
2018-03-31T08:34:29.258Z,99463.60
2018-03-31T08:39:22.101Z,99466.66
2018-03-31T08:44:15.270Z,99464.31
2018-03-31T08:49:08.406Z,99461.86
2018-03-31T08:54:01.721Z,99455.05
2018-03-31T08:58:55.191Z,99462.34
2018-03-31T09:03:48.290Z,99456.80
2018-03-31T09:08:41.399Z,99448.31
2018-03-31T09:13:35.318Z,99451.05
2018-03-31T09:18:28.494Z,99450.15
2018-03-31T09:23:21.601Z,99448.56
2018-03-31T09:28:14.723Z,99446.70
2018-03-31T09:33:07.852Z,99444.69
2018-03-31T09:38:01.016Z,99441.98
2018-03-31T09:42:54.137Z,99439.23
2018-03-31T09:47:47.309Z,99435.15
2018-03-31T09:52:40.450Z,99436.36
2018-03-31T09:57:33.570Z,99446.25
2018-03-31T10:02:26.686Z,99443.16
2018-03-31T10:07:19.816Z,99445.19
2018-03-31T10:12:12.685Z,99443.55
2018-03-31T10:17:05.575Z,99452.86
2018-03-31T10:21:59.201Z,99455.65
2018-03-31T10:26:52.061Z,99459.41
2018-03-31T10:31:44.894Z,99456.06
2018-03-31T10:36:37.743Z,99456.20
2018-03-31T10:41:30.956Z,99448.30
2018-03-31T10:46:24.639Z,99447.30
2018-03-31T10:51:17.654Z,99454.95
2018-03-31T10:56:10.483Z,99448.80
2018-03-31T11:01:03.376Z,99442.48
2018-03-31T11:05:56.262Z,99442.13
2018-03-31T11:10:49.106Z,99448.25
2018-03-31T11:15:42.112Z,99448.62
2018-03-31T11:20:35.129Z,99448.36
2018-03-31T11:25:27.980Z,99447.19
2018-03-31T11:30:21.600Z,99458.58
2018-03-31T11:35:14.468Z,99451.53
2018-03-31T11:40:07.340Z,99451.70
2018-03-31T11:45:00.208Z,99451.84
2018-03-31T11:49:53.073Z,99450.98
2018-03-31T11:54:45.934Z,99448.06
2018-03-31T11:59:38.789Z,99449.69
2018-03-31T12:04:31.656Z,99451.16
2018-03-31T12:09:24.472Z,99450.72
2018-03-31T12:14:17.330Z,99444.54
2018-03-31T12:19:10.213Z,99450.48
2018-03-31T12:24:03.069Z,99449.09
2018-03-31T12:28:55.945Z,99447.17
2018-03-31T12:33:48.784Z,99451.23
2018-03-31T12:38:41.654Z,99454.15
2018-03-31T12:43:34.533Z,99453.59
2018-03-31T12:48:27.615Z,99442.59
2018-03-31T12:53:20.621Z,99443.38
2018-03-31T12:58:13.485Z,99437.53
2018-03-31T13:03:07.089Z,99430.28
2018-03-31T13:07:59.974Z,99431.56
2018-03-31T13:12:52.878Z,99423.66
2018-03-31T13:17:45.729Z,99436.63
2018-03-31T13:22:38.654Z,99426.55
2018-03-31T13:27:31.544Z,99423.28
2018-03-31T13:32:24.411Z,99428.32
2018-03-31T13:37:17.272Z,99419.02
2018-03-31T13:42:09.902Z,99406.53
2018-03-31T13:47:03.538Z,99411.97
2018-03-31T13:51:56.392Z,99416.14
2018-03-31T13:56:49.266Z,99413.55
2018-03-31T14:01:42.142Z,99417.13
2018-03-31T14:06:34.970Z,99407.18
2018-03-31T14:11:27.864Z,99407.45
2018-03-31T14:16:20.736Z,99411.22
2018-03-31T14:21:13.593Z,99409.55
2018-03-31T14:26:06.460Z,99408.94
2018-03-31T14:30:59.324Z,99406.53
2018-03-31T14:35:52.197Z,99406.06
2018-03-31T14:40:45.090Z,99417.83
2018-03-31T14:45:37.952Z,99405.77
2018-03-31T14:50:30.886Z,99413.73
2018-03-31T14:55:23.820Z,99418.38
2018-03-31T15:00:16.811Z,99420.91
2018-03-31T15:05:09.688Z,99418.20
2018-03-31T15:10:02.374Z,99423.91
2018-03-31T15:14:55.240Z,99427.46
2018-03-31T15:19:48.187Z,99425.80
2018-03-31T15:24:41.053Z,99428.37
2018-03-31T15:29:34.861Z,99433.34
2018-03-31T15:34:27.700Z,99423.50
2018-03-31T15:39:20.561Z,99420.90
2018-03-31T15:44:14.179Z,99423.24
2018-03-31T15:49:07.017Z,99420.09
2018-03-31T15:53:59.859Z,99418.27
2018-03-31T15:58:52.748Z,99414.39
2018-03-31T16:03:46.345Z,99420.29
2018-03-31T16:08:39.211Z,99437.78
2018-03-31T16:13:32.104Z,99429.75
2018-03-31T16:18:25.216Z,99436.64
2018-03-31T16:23:19.575Z,99436.93
2018-03-31T16:28:12.413Z,99432.08
2018-03-31T16:33:05.266Z,99436.72
2018-03-31T16:37:58.860Z,99438.52
2018-03-31T16:42:52.480Z,99438.70
2018-03-31T16:47:45.350Z,99433.97
2018-03-31T16:52:38.225Z,99442.13
2018-03-31T16:57:30.843Z,99450.59
2018-03-31T17:02:24.472Z,99445.48
2018-03-31T17:07:17.554Z,99449.38
2018-03-31T17:12:10.398Z,99446.23
2018-03-31T17:17:03.024Z,99454.70
2018-03-31T17:21:56.655Z,99453.22
2018-03-31T17:26:49.508Z,99460.61
2018-03-31T17:31:42.381Z,99463.06
2018-03-31T17:36:35.447Z,99464.64
2018-03-31T17:41:28.478Z,99465.05
2018-03-31T17:46:22.109Z,99472.68
2018-03-31T17:51:14.972Z,99475.50
2018-03-31T17:56:07.828Z,99477.04
2018-03-31T18:01:00.703Z,99480.50
2018-03-31T18:05:54.505Z,99484.66
2018-03-31T18:10:47.371Z,99489.23
2018-03-31T18:15:40.386Z,99497.56
2018-03-31T18:20:33.552Z,99499.19
2018-03-31T18:25:26.397Z,99495.86
2018-03-31T18:30:19.361Z,99508.21
2018-03-31T18:35:12.241Z,99512.66
2018-03-31T18:40:06.588Z,99510.52
2018-03-31T18:44:59.424Z,99518.84
2018-03-31T18:49:52.273Z,99524.29
2018-03-31T18:54:45.312Z,99539.25
2018-03-31T18:59:38.304Z,99549.20
2018-03-31T19:04:31.164Z,99558.70
2018-03-31T19:09:24.784Z,99562.94
2018-03-31T19:14:17.630Z,99570.14
2018-03-31T19:19:10.692Z,99598.15
2018-03-31T19:24:04.353Z,99600.58
2018-03-31T19:28:57.461Z,99611.56
2018-03-31T19:33:50.303Z,99626.47
2018-03-31T19:38:43.268Z,99647.45
2018-03-31T19:43:36.157Z,99650.81
2018-03-31T19:48:29.159Z,99667.03
2018-03-31T19:53:22.294Z,99669.03
2018-03-31T19:58:15.295Z,99677.12
2018-03-31T20:03:08.127Z,99683.19
2018-03-31T20:08:00.960Z,99685.16
2018-03-31T20:12:54.537Z,99695.68
2018-03-31T20:17:48.157Z,99702.54
2018-03-31T20:22:41.025Z,99709.33
2018-03-31T20:27:33.857Z,99714.60
2018-03-31T20:32:27.475Z,99718.47
2018-03-31T20:37:20.342Z,99719.45
2018-03-31T20:42:13.171Z,99725.09
2018-03-31T20:47:06.829Z,99720.88
2018-03-31T20:51:59.686Z,99715.73
2018-03-31T20:56:52.603Z,99718.02
2018-03-31T21:01:45.462Z,99724.98
2018-03-31T21:06:39.080Z,99730.48
2018-03-31T21:11:31.906Z,99734.52
2018-03-31T21:16:25.539Z,99733.73
2018-03-31T21:21:18.442Z,99734.13
2018-03-31T21:26:11.288Z,99731.70
2018-03-31T21:31:04.134Z,99743.02
2018-03-31T21:35:56.971Z,99741.34
2018-03-31T21:40:49.812Z,99745.08
2018-03-31T21:45:42.657Z,99752.83
2018-03-31T21:50:35.281Z,99753.36
2018-03-31T21:55:29.264Z,99764.89
2018-03-31T22:00:21.880Z,99765.22
2018-03-31T22:05:14.722Z,99762.97
2018-03-31T22:10:07.542Z,99763.67
2018-03-31T22:15:06.737Z,99759.86
2018-03-31T22:20:00.382Z,99755.56
2018-03-31T22:24:53.238Z,99762.55
2018-03-31T22:29:46.090Z,99768.51
2018-03-31T22:34:38.962Z,99772.11
2018-03-31T22:39:31.783Z,99765.28
2018-03-31T22:44:25.033Z,99768.50
2018-03-31T22:49:17.968Z,99768.53
2018-03-31T22:54:10.832Z,99769.03
2018-03-31T22:59:04.448Z,99766.95
2018-03-31T23:03:57.519Z,99769.27
2018-03-31T23:08:50.333Z,99772.87
2018-03-31T23:13:43.978Z,99756.17
2018-03-31T23:18:36.807Z,99737.97
2018-03-31T23:23:29.762Z,99759.18
2018-03-31T23:28:23.410Z,99766.70
2018-03-31T23:33:16.284Z,99768.98
2018-03-31T23:38:09.125Z,99766.81
2018-03-31T23:43:01.978Z,99769.02
2018-03-31T23:47:54.827Z,99768.55
2018-03-31T23:52:48.541Z,99771.83
2018-03-31T23:57:41.373Z,99769.64
